Birdham, United Kingdom
Current Conditions -  °F | °C
As of 4:20 PM on Friday 24 Oct 2014 (Local Time) from EGKA Reporting Station
Broken Clouds Broken Clouds  
Wind Chill: 61°   Ceiling: 700
Heat Index: 61°   Visibility: 5mi
Dew Point: 59°   Wind: 10mph
Humidity: 94%   Direction: 220°SW
Pressure: 29.91"   Gusts: NA
Location:  50.8°N, 0.83°W
Report Text: EGKA 241520Z 22009KT 8000 FEW005 BKN007 16/15 Q1013
Loading
Personal Weather Stations






























Interactive Weather Map New forecast layout! Learn more

10-Day Weather Forecast

Advertisements
Track Severe Weather on mobile